Charter Quote
Worldwide +1-877-727-2538 Call
Select Language Lang
SAFETY RELIABILITY EXPERIENCE

Private Jet Charter Services - Weihai Airport (ZSWH)

Paramount Business Jets offers private jet charter flights and luxury airliner charters to and from Weihai Airport.

AIRPORT INFORMATION
ICAOZSWH
LOCATIONWeihai, China
FACILITY TYPEAIRPORT

At Paramount Business Jets you can hire chartered private jets to and from Weihai Airport with as little as 4 hours of notice. All flights booked via Paramount Business Jets are operated by certified direct air carriers that meet and exceed the FAA part 135 and 121 protocol or a foreign equivalent safety authority. Furthermore, Paramount Business Jets subscribes to ARGUS for their third party safety checks of operators, aircraft, and crews prior each and every flight to and from Weihai Airport and worldwide.

  • Quote a trip using Weihai Airport or call us 24/7 - 365 days a year at +1-877-727-2538.
Questions? Call +1-877-727-2538

METAR Weather Data at Weihai Airport, ZSWH

STATIONZSWH
OBSERVEDFri May 20, 23:00 UTC
NOWSun Nov 17, 05:59 UTC
AGE30606:59 hr ago
WINDN at 2 mph
VISIBILITYgreater than 7 miles
CLOUDSclear skies
TEMP61°F (16°C)
DEWPT50°F (10°C)
HUMIDITY68%
BAROMETER1019 hPa (30.09 in Hg)
METARZSWH 202300Z 01001MPS CAVOK 16/10 Q1019 NOSIG

Call us on +1-877-727-2538 (24 Hours) to Hire a Private Jet or Get a Quick Quote.

Find Airports Near any Location

Processing
...